createdAt,value
2018-11-04T00:00:58.237Z,987.33
2018-11-04T00:02:08.380Z,987.31
2018-11-04T00:03:17.682Z,987.28
2018-11-04T00:04:27.259Z,987.28
2018-11-04T00:05:37.107Z,987.3
2018-11-04T00:06:46.960Z,987.32
2018-11-04T00:07:56.350Z,987.28
2018-11-04T00:09:06.630Z,987.28
2018-11-04T00:10:16.755Z,987.23
2018-11-04T00:11:26.883Z,987.23
2018-11-04T00:12:37.013Z,987.21
2018-11-04T00:13:46.868Z,987.22
2018-11-04T00:14:57.091Z,987.18
2018-11-04T00:16:06.971Z,987.21
2018-11-04T00:17:16.552Z,987.32
2018-11-04T00:18:26.400Z,987.26
2018-11-04T00:19:36.528Z,987.3
2018-11-04T00:20:46.658Z,987.23
2018-11-04T00:21:56.566Z,987.16
2018-11-04T00:23:06.699Z,987.18
2018-11-04T00:24:16.282Z,987.18
2018-11-04T00:25:26.140Z,987.2
2018-11-04T00:26:36.278Z,987.15
2018-11-04T00:27:46.455Z,987.22
2018-11-04T00:28:56.303Z,987.2
2018-11-04T00:30:05.887Z,987.25
2018-11-04T00:31:16.022Z,987.23
2018-11-04T00:32:26.151Z,987.17
2018-11-04T00:33:36.290Z,987.2
2018-11-04T00:34:45.910Z,987.24
2018-11-04T00:35:55.543Z,987.25
2018-11-04T00:37:05.686Z,987.22
2018-11-04T00:38:15.544Z,987.2
2018-11-04T00:39:25.668Z,987.18
2018-11-04T00:40:35.545Z,987.2
2018-11-04T00:41:45.677Z,987.21
2018-11-04T00:42:55.803Z,987.19
2018-11-04T00:44:05.930Z,987.18
2018-11-04T00:45:16.134Z,987.18
2018-11-04T00:46:27.001Z,987.15
2018-11-04T00:47:37.128Z,987.11
2018-11-04T00:48:47.257Z,987.13
2018-11-04T00:49:57.407Z,987.13
2018-11-04T00:51:07.561Z,987.1
2018-11-04T00:52:17.699Z,987.12
2018-11-04T00:53:27.274Z,987.1
2018-11-04T00:54:37.457Z,987.13
2018-11-04T00:55:47.592Z,987.13
2018-11-04T00:56:57.442Z,987.14
2018-11-04T00:58:07.576Z,987.17
2018-11-04T00:59:17.435Z,987.18
2018-11-04T01:00:27.286Z,987.17
2018-11-04T01:01:37.484Z,987.16
2018-11-04T01:02:47.160Z,987.17
2018-11-04T01:03:56.760Z,987.2
2018-11-04T01:05:06.676Z,987.11
2018-11-04T01:06:16.813Z,987.15
2018-11-04T01:07:26.950Z,987.15
2018-11-04T01:08:36.816Z,987.14
2018-11-04T01:09:46.685Z,987.08
2018-11-04T01:10:56.540Z,987.1
2018-11-04T01:12:06.394Z,987.06
2018-11-04T01:13:16.250Z,987.03
2018-11-04T01:14:26.105Z,987
2018-11-04T01:15:35.414Z,986.96
2018-11-04T01:16:45.542Z,986.99
2018-11-04T01:17:55.666Z,986.91
2018-11-04T01:19:05.240Z,986.93
2018-11-04T01:20:14.821Z,986.91
2018-11-04T01:21:24.950Z,986.89
2018-11-04T01:22:34.798Z,986.86
2018-11-04T01:23:44.930Z,986.88
2018-11-04T01:24:54.233Z,986.8
2018-11-04T01:26:04.085Z,986.83
2018-11-04T01:27:13.385Z,986.78
2018-11-04T01:28:22.962Z,986.76
2018-11-04T01:29:33.092Z,986.8
2018-11-04T01:30:42.950Z,986.8
2018-11-04T01:31:53.131Z,986.78
2018-11-04T01:33:03.274Z,986.78
2018-11-04T01:34:12.850Z,986.81
2018-11-04T01:35:22.714Z,986.77
2018-11-04T01:36:32.684Z,986.78
2018-11-04T01:37:42.539Z,986.75
2018-11-04T01:38:52.116Z,986.71
2018-11-04T01:40:01.972Z,986.73
2018-11-04T01:41:11.831Z,986.7
2018-11-04T01:42:21.681Z,986.74
2018-11-04T01:43:31.535Z,986.7
2018-11-04T01:44:41.391Z,986.69
2018-11-04T01:45:51.250Z,986.72
2018-11-04T01:47:01.383Z,986.72
2018-11-04T01:48:11.230Z,986.74
2018-11-04T01:49:21.081Z,986.71
2018-11-04T01:50:30.930Z,986.72
2018-11-04T01:51:41.059Z,986.73
2018-11-04T01:52:50.636Z,986.75
2018-11-04T01:54:00.761Z,986.75
2018-11-04T01:55:10.342Z,986.76
2018-11-04T01:56:20.478Z,986.72
2018-11-04T01:57:30.616Z,986.69
2018-11-04T01:58:40.746Z,986.71
2018-11-04T01:59:50.875Z,986.72
2018-11-04T02:01:01.006Z,986.7
2018-11-04T02:02:11.140Z,986.68
2018-11-04T02:03:20.991Z,986.67
2018-11-04T02:04:31.119Z,986.7
2018-11-04T02:05:40.696Z,986.68
2018-11-04T02:06:50.823Z,986.7
2018-11-04T02:08:00.678Z,986.67
2018-11-04T02:09:10.568Z,986.65
2018-11-04T02:10:20.696Z,986.65
2018-11-04T02:11:30.559Z,986.59
2018-11-04T02:12:40.743Z,986.65
2018-11-04T02:13:50.880Z,986.63
2018-11-04T02:15:01.005Z,986.61
2018-11-04T02:16:10.859Z,986.56
2018-11-04T02:17:20.985Z,986.55
2018-11-04T02:18:30.566Z,986.59
2018-11-04T02:19:40.699Z,986.59
2018-11-04T02:20:50.554Z,986.54
2018-11-04T02:22:00.407Z,986.53
2018-11-04T02:23:10.535Z,986.57
2018-11-04T02:24:20.666Z,986.52
2018-11-04T02:25:30.532Z,986.54
2018-11-04T02:26:40.383Z,986.48
2018-11-04T02:27:50.233Z,986.53
2018-11-04T02:29:00.359Z,986.54
2018-11-04T02:30:10.497Z,986.49
2018-11-04T02:31:20.083Z,986.5
2018-11-04T02:32:30.214Z,986.52
2018-11-04T02:33:40.072Z,986.45
2018-11-04T02:34:49.932Z,986.46
2018-11-04T02:35:59.509Z,986.45
2018-11-04T02:37:09.656Z,986.45
2018-11-04T02:38:19.513Z,986.43
2018-11-04T02:39:29.371Z,986.42
2018-11-04T02:40:39.504Z,986.41
2018-11-04T02:41:49.359Z,986.43
2018-11-04T02:42:59.494Z,986.46
2018-11-04T02:44:09.351Z,986.46
2018-11-04T02:45:19.211Z,986.51
2018-11-04T02:46:29.343Z,986.47
2018-11-04T02:47:39.533Z,986.47
2018-11-04T02:48:49.392Z,986.44
2018-11-04T02:49:59.243Z,986.49
2018-11-04T02:51:09.389Z,986.46
2018-11-04T02:52:19.520Z,986.46
2018-11-04T02:53:29.368Z,986.49
2018-11-04T02:54:39.501Z,986.47
2018-11-04T02:55:49.351Z,986.49
2018-11-04T02:56:59.502Z,986.51
2018-11-04T02:58:09.635Z,986.48
2018-11-04T02:59:19.763Z,986.46
2018-11-04T03:00:29.627Z,986.48
2018-11-04T03:01:39.815Z,986.48
2018-11-04T03:02:50.161Z,986.52
2018-11-04T03:04:00.298Z,986.53
2018-11-04T03:05:10.151Z,986.52
2018-11-04T03:06:20.281Z,986.52
2018-11-04T03:07:30.414Z,986.57
2018-11-04T03:08:39.998Z,986.58
2018-11-04T03:09:49.856Z,986.59
2018-11-04T03:10:59.706Z,986.55
2018-11-04T03:12:09.570Z,986.59
2018-11-04T03:13:19.705Z,986.56
2018-11-04T03:14:29.616Z,986.53
2018-11-04T03:15:39.473Z,986.53
2018-11-04T03:16:48.778Z,986.53
2018-11-04T03:17:58.645Z,986.5
2018-11-04T03:19:08.780Z,986.52
2018-11-04T03:20:18.905Z,986.51
2018-11-04T03:21:28.756Z,986.5
2018-11-04T03:22:38.608Z,986.49
2018-11-04T03:23:48.459Z,986.49
2018-11-04T03:24:58.584Z,986.47
2018-11-04T03:26:08.173Z,986.47
2018-11-04T03:27:18.339Z,986.47
2018-11-04T03:28:28.246Z,986.41
2018-11-04T03:29:38.108Z,986.38
2018-11-04T03:30:47.689Z,986.36
2018-11-04T03:31:57.557Z,986.32
2018-11-04T03:33:07.418Z,986.31
2018-11-04T03:34:17.601Z,986.29
2018-11-04T03:35:27.748Z,986.31
2018-11-04T03:36:37.608Z,986.3
2018-11-04T03:37:47.740Z,986.28
2018-11-04T03:38:57.879Z,986.3
2018-11-04T03:40:08.009Z,986.31
2018-11-04T03:41:18.138Z,986.34
2018-11-04T03:42:28.270Z,986.33
2018-11-04T03:43:38.133Z,986.34
2018-11-04T03:44:48.319Z,986.36
2018-11-04T03:45:58.171Z,986.33
2018-11-04T03:47:07.758Z,986.31
2018-11-04T03:48:17.619Z,986.31
2018-11-04T03:49:27.481Z,986.31
2018-11-04T03:50:37.605Z,986.3
2018-11-04T03:51:47.505Z,986.28
2018-11-04T03:52:57.079Z,986.31
2018-11-04T03:54:06.659Z,986.28
2018-11-04T03:55:16.233Z,986.33
2018-11-04T03:56:26.365Z,986.34
2018-11-04T03:57:36.501Z,986.33
2018-11-04T03:58:46.352Z,986.29
2018-11-04T03:59:56.475Z,986.32
2018-11-04T04:01:06.614Z,986.28
2018-11-04T04:02:16.799Z,986.32
2018-11-04T04:03:26.930Z,986.31
2018-11-04T04:04:37.064Z,986.27
2018-11-04T04:05:46.645Z,986.32
2018-11-04T04:06:56.495Z,986.3
2018-11-04T04:08:06.632Z,986.3
2018-11-04T04:09:16.766Z,986.28
2018-11-04T04:10:26.619Z,986.3
2018-11-04T04:11:36.746Z,986.28
2018-11-04T04:12:46.605Z,986.31
2018-11-04T04:13:56.462Z,986.35
2018-11-04T04:15:06.364Z,986.36
2018-11-04T04:16:16.511Z,986.33
2018-11-04T04:17:26.094Z,986.33
2018-11-04T04:18:36.231Z,986.33
2018-11-04T04:19:45.817Z,986.34
2018-11-04T04:20:55.678Z,986.38
2018-11-04T04:22:04.984Z,986.38
2018-11-04T04:23:14.847Z,986.41
2018-11-04T04:24:24.441Z,986.39
2018-11-04T04:25:34.019Z,986.38
2018-11-04T04:26:43.608Z,986.37
2018-11-04T04:27:53.462Z,986.34
2018-11-04T04:29:03.318Z,986.32
2018-11-04T04:30:13.447Z,986.35
2018-11-04T04:31:23.304Z,986.33
2018-11-04T04:32:33.161Z,986.3
2018-11-04T04:33:43.022Z,986.3
2018-11-04T04:34:52.878Z,986.24
2018-11-04T04:36:02.735Z,986.31
2018-11-04T04:37:12.610Z,986.3
2018-11-04T04:38:22.737Z,986.28
2018-11-04T04:39:32.599Z,986.36
2018-11-04T04:40:42.744Z,986.37
2018-11-04T04:41:52.873Z,986.39
2018-11-04T04:43:02.737Z,986.39
2018-11-04T04:44:12.867Z,986.4
2018-11-04T04:45:22.735Z,986.44
2018-11-04T04:46:32.306Z,986.49
2018-11-04T04:47:41.884Z,986.44
2018-11-04T04:48:52.023Z,986.38
2018-11-04T04:50:03.597Z,986.41
2018-11-04T04:51:13.451Z,986.49
2018-11-04T04:52:23.631Z,986.46
2018-11-04T04:53:33.498Z,986.43
2018-11-04T04:54:43.648Z,986.43
2018-11-04T04:55:57.509Z,986.43
2018-11-04T04:57:07.088Z,986.44
2018-11-04T04:58:17.234Z,986.42
2018-11-04T04:59:27.359Z,986.36
2018-11-04T05:00:37.496Z,986.35
2018-11-04T05:01:47.635Z,986.43
2018-11-04T05:02:57.764Z,986.46
2018-11-04T05:04:07.622Z,986.47
2018-11-04T05:05:17.750Z,986.51
2018-11-04T05:06:27.330Z,986.48
2018-11-04T05:07:37.479Z,986.47
2018-11-04T05:08:47.606Z,986.46
2018-11-04T05:09:57.742Z,986.38
2018-11-04T05:11:07.603Z,986.41
2018-11-04T05:12:17.462Z,986.39
2018-11-04T05:13:27.325Z,986.42
2018-11-04T05:14:37.458Z,986.41
2018-11-04T05:15:47.594Z,986.37
2018-11-04T05:16:57.727Z,986.4
2018-11-04T05:18:07.576Z,986.36
2018-11-04T05:19:17.702Z,986.31
2018-11-04T05:20:27.555Z,986.4
2018-11-04T05:21:37.681Z,986.36
2018-11-04T05:22:47.606Z,986.39
2018-11-04T05:23:57.738Z,986.44
2018-11-04T05:25:07.866Z,986.41
2018-11-04T05:26:17.716Z,986.36
2018-11-04T05:27:27.846Z,986.38
2018-11-04T05:28:37.705Z,986.39
2018-11-04T05:29:47.829Z,986.38
2018-11-04T05:30:57.681Z,986.33
2018-11-04T05:32:07.816Z,986.32
2018-11-04T05:33:17.677Z,986.34
2018-11-04T05:34:27.822Z,986.33
2018-11-04T05:35:37.949Z,986.31
2018-11-04T05:36:47.804Z,986.26
2018-11-04T05:37:57.660Z,986.27
2018-11-04T05:39:07.830Z,986.26
2018-11-04T05:40:17.968Z,986.23
2018-11-04T05:41:27.547Z,986.24
2018-11-04T05:42:37.463Z,986.26
2018-11-04T05:43:47.592Z,986.21
2018-11-04T05:44:57.720Z,986.25
2018-11-04T05:46:07.578Z,986.17
2018-11-04T05:47:17.436Z,986.21
2018-11-04T05:48:27.616Z,986.28
2018-11-04T05:49:37.464Z,986.24
2018-11-04T05:50:47.047Z,986.25
2018-11-04T05:51:57.182Z,986.25
2018-11-04T05:53:07.052Z,986.22
2018-11-04T05:54:17.181Z,986.22
2018-11-04T05:55:27.306Z,986.23
2018-11-04T05:56:37.441Z,986.27
2018-11-04T05:57:47.023Z,986.29
2018-11-04T05:58:57.147Z,986.31
2018-11-04T06:00:07.009Z,986.3
2018-11-04T06:01:16.869Z,986.26
2018-11-04T06:02:26.738Z,986.26
2018-11-04T06:03:36.591Z,986.3
2018-11-04T06:04:46.717Z,986.29
2018-11-04T06:05:56.292Z,986.34
2018-11-04T06:07:06.416Z,986.33
2018-11-04T06:08:16.041Z,986.35
2018-11-04T06:09:26.171Z,986.32
2018-11-04T06:10:35.747Z,986.37
2018-11-04T06:11:45.877Z,986.37
2018-11-04T06:12:55.464Z,986.41
2018-11-04T06:14:05.323Z,986.43
2018-11-04T06:15:15.180Z,986.43
2018-11-04T06:16:24.784Z,986.45
2018-11-04T06:17:34.358Z,986.43
2018-11-04T06:18:43.933Z,986.42
2018-11-04T06:19:53.789Z,986.45
2018-11-04T06:21:03.375Z,986.4
2018-11-04T06:22:13.230Z,986.45
2018-11-04T06:23:22.818Z,986.5
2018-11-04T06:24:32.953Z,986.48
2018-11-04T06:25:43.083Z,986.47
2018-11-04T06:26:53.214Z,986.5
2018-11-04T06:28:03.336Z,986.48
2018-11-04T06:29:13.238Z,986.47
2018-11-04T06:30:23.364Z,986.49
2018-11-04T06:31:33.500Z,986.51
2018-11-04T06:32:43.402Z,986.52
2018-11-04T06:33:53.524Z,986.47
2018-11-04T06:35:03.378Z,986.44
2018-11-04T06:36:13.507Z,986.44
2018-11-04T06:37:23.359Z,986.52
2018-11-04T06:38:33.210Z,986.56
2018-11-04T06:39:43.357Z,986.54
2018-11-04T06:40:53.510Z,986.51
2018-11-04T06:42:03.707Z,986.56
2018-11-04T06:43:14.145Z,986.59
2018-11-04T06:44:24.573Z,986.56
2018-11-04T06:45:34.760Z,986.55
2018-11-04T06:46:44.334Z,986.59
2018-11-04T06:47:54.039Z,986.6
2018-11-04T06:49:04.175Z,986.61
2018-11-04T06:50:14.305Z,986.67
2018-11-04T06:51:24.159Z,986.61
2018-11-04T06:52:34.017Z,986.67
2018-11-04T06:53:43.319Z,986.69
2018-11-04T06:54:53.450Z,986.65
2018-11-04T06:56:03.307Z,986.68
2018-11-04T06:57:13.433Z,986.68
2018-11-04T06:58:23.612Z,986.69
2018-11-04T06:59:33.470Z,986.71
2018-11-04T07:00:43.649Z,986.71
2018-11-04T07:01:53.783Z,986.73
2018-11-04T07:03:03.915Z,986.75
2018-11-04T07:04:14.041Z,986.79
2018-11-04T07:05:24.170Z,986.84
2018-11-04T07:06:34.303Z,986.81
2018-11-04T07:07:44.168Z,986.81
2018-11-04T07:08:54.057Z,986.78
2018-11-04T07:10:04.134Z,986.81
2018-11-04T07:11:14.009Z,986.81
2018-11-04T07:12:24.136Z,986.81
2018-11-04T07:13:34.266Z,986.77
2018-11-04T07:14:44.120Z,986.83
2018-11-04T07:15:54.253Z,986.79
2018-11-04T07:17:04.121Z,986.78
2018-11-04T07:18:14.265Z,986.77
2018-11-04T07:19:24.394Z,986.76
2018-11-04T07:20:34.248Z,986.74
2018-11-04T07:21:44.101Z,986.75
2018-11-04T07:22:54.230Z,986.71
2018-11-04T07:24:04.084Z,986.69
2018-11-04T07:25:13.938Z,986.69
2018-11-04T07:26:24.105Z,986.69
2018-11-04T07:27:33.959Z,986.67
2018-11-04T07:28:44.089Z,986.67
2018-11-04T07:29:54.210Z,986.65
2018-11-04T07:31:04.349Z,986.66
2018-11-04T07:32:14.233Z,986.64
2018-11-04T07:33:24.324Z,986.66
2018-11-04T07:34:34.173Z,986.66
2018-11-04T07:35:43.746Z,986.68
2018-11-04T07:36:53.612Z,986.62
2018-11-04T07:38:03.461Z,986.65
2018-11-04T07:39:13.386Z,986.63
2018-11-04T07:40:23.512Z,986.63
2018-11-04T07:41:33.381Z,986.63
2018-11-04T07:42:43.506Z,986.6
2018-11-04T07:43:53.638Z,986.62
2018-11-04T07:45:03.553Z,986.68
2018-11-04T07:46:13.416Z,986.72
2018-11-04T07:47:23.543Z,986.77
2018-11-04T07:48:33.402Z,986.77
2018-11-04T07:49:43.523Z,986.76
2018-11-04T07:50:53.645Z,986.78
2018-11-04T07:52:03.499Z,986.89
2018-11-04T07:53:13.071Z,986.84
2018-11-04T07:54:22.922Z,986.85
2018-11-04T07:55:32.794Z,986.9
2018-11-04T07:56:43.029Z,986.89
2018-11-04T07:57:53.509Z,986.9
2018-11-04T07:59:03.643Z,986.84
2018-11-04T08:00:13.775Z,986.83
2018-11-04T08:01:23.077Z,986.81
2018-11-04T08:02:33.259Z,986.84
2018-11-04T08:03:43.110Z,986.76
2018-11-04T08:04:52.962Z,986.86
2018-11-04T08:06:02.823Z,986.85
2018-11-04T08:07:12.400Z,986.89
2018-11-04T08:08:21.972Z,986.89
2018-11-04T08:09:32.104Z,986.85
2018-11-04T08:10:42.230Z,986.78
2018-11-04T08:11:51.809Z,986.87
2018-11-04T08:13:01.666Z,986.81
2018-11-04T08:14:11.793Z,986.81
2018-11-04T08:15:21.667Z,986.88
2018-11-04T08:16:31.242Z,986.92
2018-11-04T08:17:41.139Z,986.94
2018-11-04T08:18:50.988Z,986.87
2018-11-04T08:20:00.838Z,986.9
2018-11-04T08:21:10.735Z,986.92
2018-11-04T08:22:21.489Z,986.94
2018-11-04T08:23:31.611Z,986.92
2018-11-04T08:24:41.737Z,986.91
2018-11-04T08:25:51.867Z,986.97
2018-11-04T08:27:01.995Z,986.94
2018-11-04T08:28:12.129Z,986.98
2018-11-04T08:29:21.979Z,987
2018-11-04T08:30:32.117Z,987.09
2018-11-04T08:31:42.296Z,987.05
2018-11-04T08:32:52.423Z,987.06
2018-11-04T08:34:02.273Z,987.04
2018-11-04T08:35:12.401Z,987.04
2018-11-04T08:36:21.702Z,987.05
2018-11-04T08:37:31.836Z,986.98
2018-11-04T08:38:41.697Z,986.95
2018-11-04T08:39:51.661Z,986.99
2018-11-04T08:41:02.032Z,986.97
2018-11-04T08:42:11.883Z,986.96
2018-11-04T08:43:22.016Z,986.95
2018-11-04T08:44:32.146Z,986.96
2018-11-04T08:45:42.340Z,986.96
2018-11-04T08:46:52.707Z,986.99
2018-11-04T08:48:02.562Z,987.01
2018-11-04T08:49:12.417Z,987.02
2018-11-04T08:50:22.266Z,986.98
2018-11-04T08:51:32.393Z,986.94
2018-11-04T08:52:42.663Z,986.96
2018-11-04T08:53:52.606Z,986.93
2018-11-04T08:55:02.182Z,986.98
2018-11-04T08:56:12.047Z,986.91
2018-11-04T08:57:22.174Z,986.94
2018-11-04T08:58:32.032Z,986.91
2018-11-04T08:59:41.617Z,986.86
2018-11-04T09:00:50.964Z,986.93
2018-11-04T09:02:01.097Z,986.85
2018-11-04T09:03:11.231Z,986.97
2018-11-04T09:04:21.414Z,987.01
2018-11-04T09:05:31.317Z,987.01
2018-11-04T09:06:41.551Z,987.06
2018-11-04T09:07:51.303Z,987.01
2018-11-04T09:09:01.164Z,986.95
2018-11-04T09:10:11.013Z,986.92
2018-11-04T09:11:20.866Z,986.91
2018-11-04T09:12:30.996Z,986.94
2018-11-04T09:13:40.850Z,986.97
2018-11-04T09:14:50.982Z,987.01
2018-11-04T09:16:01.109Z,986.99
2018-11-04T09:17:10.966Z,987.05
2018-11-04T09:18:20.832Z,987.1
2018-11-04T09:19:30.958Z,987.03
2018-11-04T09:20:41.084Z,987.1
2018-11-04T09:21:51.394Z,987.1
2018-11-04T09:23:02.347Z,987.2
2018-11-04T09:24:12.477Z,987.16
2018-11-04T09:25:22.603Z,987.18
2018-11-04T09:26:32.727Z,987.21
2018-11-04T09:27:42.585Z,987.19
2018-11-04T09:28:52.441Z,987.18
2018-11-04T09:30:02.173Z,987.22
2018-11-04T09:31:12.029Z,987.23
2018-11-04T09:32:21.330Z,987.25
2018-11-04T09:33:31.179Z,987.17
2018-11-04T09:34:40.808Z,987.21
2018-11-04T09:35:51.551Z,987.24
2018-11-04T09:37:02.596Z,987.22
2018-11-04T09:38:12.449Z,987.14
2018-11-04T09:39:22.020Z,987.02
2018-11-04T09:40:31.594Z,987.06
2018-11-04T09:41:41.452Z,987.03
2018-11-04T09:42:51.578Z,987
2018-11-04T09:44:01.435Z,987.01
2018-11-04T09:45:11.024Z,987
2018-11-04T09:46:20.881Z,987.11
2018-11-04T09:47:31.005Z,987.06
2018-11-04T09:48:40.316Z,987.1
2018-11-04T09:49:50.520Z,987.13
2018-11-04T09:51:00.426Z,987.25
2018-11-04T09:52:10.278Z,987.29
2018-11-04T09:53:19.578Z,987.35
2018-11-04T09:54:29.708Z,987.38
2018-11-04T09:55:39.837Z,987.37
2018-11-04T09:56:50.015Z,987.38
2018-11-04T09:58:00.220Z,987.42
2018-11-04T09:59:10.080Z,987.44
2018-11-04T10:00:19.657Z,987.41
2018-11-04T10:01:29.242Z,987.41
2018-11-04T10:02:39.374Z,987.43
2018-11-04T10:03:49.519Z,987.38
2018-11-04T10:04:59.367Z,987.36
2018-11-04T10:06:09.506Z,987.4
2018-11-04T10:07:19.398Z,987.35
2018-11-04T10:08:29.607Z,987.42
2018-11-04T10:09:39.730Z,987.45
2018-11-04T10:10:49.591Z,987.42
2018-11-04T10:11:59.720Z,987.44
2018-11-04T10:13:09.682Z,987.45
2018-11-04T10:14:19.872Z,987.45
2018-11-04T10:15:30.057Z,987.42
2018-11-04T10:16:39.911Z,987.37
2018-11-04T10:17:49.771Z,987.37
2018-11-04T10:18:59.522Z,987.32
2018-11-04T10:20:10.154Z,987.32
2018-11-04T10:21:21.697Z,987.32
2018-11-04T10:22:31.824Z,987.32
2018-11-04T10:23:41.133Z,987.39
2018-11-04T10:24:51.270Z,987.44
2018-11-04T10:26:01.395Z,987.44
2018-11-04T10:27:11.529Z,987.46
2018-11-04T10:28:21.659Z,987.47
2018-11-04T10:29:31.782Z,987.48
2018-11-04T10:30:41.637Z,987.47
2018-11-04T10:31:51.768Z,987.48
2018-11-04T10:33:01.953Z,987.46
2018-11-04T10:34:11.534Z,987.47
2018-11-04T10:35:21.390Z,987.45
2018-11-04T10:36:31.248Z,987.52
2018-11-04T10:37:41.379Z,987.49
2018-11-04T10:38:51.229Z,987.53
2018-11-04T10:40:01.409Z,987.42
2018-11-04T10:41:11.277Z,987.41
2018-11-04T10:42:21.411Z,987.38
2018-11-04T10:43:31.556Z,987.33
2018-11-04T10:44:41.684Z,987.46
2018-11-04T10:45:51.530Z,987.46
2018-11-04T10:47:01.703Z,987.39
2018-11-04T10:48:11.281Z,987.39
2018-11-04T10:49:21.223Z,987.42
2018-11-04T10:50:32.083Z,987.42
2018-11-04T10:51:41.935Z,987.4
2018-11-04T10:52:51.794Z,987.4
2018-11-04T10:54:01.924Z,987.41
2018-11-04T10:55:11.501Z,987.35
2018-11-04T10:56:21.082Z,987.33
2018-11-04T10:57:30.662Z,987.34
2018-11-04T10:58:40.513Z,987.33
2018-11-04T10:59:50.539Z,987.36
2018-11-04T11:01:00.394Z,987.3
2018-11-04T11:02:10.249Z,987.28
2018-11-04T11:03:20.428Z,987.32
2018-11-04T11:04:30.592Z,987.32
2018-11-04T11:05:40.492Z,987.35
2018-11-04T11:06:50.342Z,987.38
2018-11-04T11:08:00.195Z,987.39
2018-11-04T11:09:10.097Z,987.38
2018-11-04T11:10:19.962Z,987.42
2018-11-04T11:11:30.085Z,987.41
2018-11-04T11:12:40.213Z,987.49
2018-11-04T11:13:50.064Z,987.43
2018-11-04T11:15:00.245Z,987.42
2018-11-04T11:16:09.820Z,987.44
2018-11-04T11:17:19.949Z,987.43
2018-11-04T11:18:30.075Z,987.38
2018-11-04T11:19:40.206Z,987.41
2018-11-04T11:20:50.398Z,987.38
2018-11-04T11:21:59.974Z,987.36
2018-11-04T11:23:09.651Z,987.36
2018-11-04T11:24:20.004Z,987.34
2018-11-04T11:25:29.927Z,987.3
2018-11-04T11:26:40.060Z,987.29
2018-11-04T11:27:49.912Z,987.3
2018-11-04T11:28:59.776Z,987.3
2018-11-04T11:30:09.653Z,987.35
2018-11-04T11:31:20.389Z,987.36
2018-11-04T11:32:30.389Z,987.43
2018-11-04T11:33:40.295Z,987.43
2018-11-04T11:34:50.146Z,987.47
2018-11-04T11:36:00.273Z,987.49
2018-11-04T11:37:10.434Z,987.5
2018-11-04T11:38:20.976Z,987.52
2018-11-04T11:39:30.859Z,987.51
2018-11-04T11:40:40.982Z,987.54
2018-11-04T11:41:50.560Z,987.47
2018-11-04T11:43:00.684Z,987.47
2018-11-04T11:44:10.038Z,987.44
2018-11-04T11:45:19.893Z,987.48
2018-11-04T11:46:30.025Z,987.4
2018-11-04T11:47:39.889Z,987.42
2018-11-04T11:48:49.738Z,987.33
2018-11-04T11:49:59.685Z,987.38
2018-11-04T11:51:09.826Z,987.37
2018-11-04T11:52:19.976Z,987.37
2018-11-04T11:53:29.767Z,987.32
2018-11-04T11:54:39.891Z,987.32
2018-11-04T11:55:50.071Z,987.29
2018-11-04T11:56:59.925Z,987.3
2018-11-04T11:58:09.512Z,987.29
2018-11-04T11:59:19.176Z,987.28
2018-11-04T12:00:29.921Z,987.32
2018-11-04T12:01:40.102Z,987.29
2018-11-04T12:02:50.233Z,987.29
2018-11-04T12:04:00.129Z,987.35
2018-11-04T12:05:10.254Z,987.31
2018-11-04T12:06:20.195Z,987.31
2018-11-04T12:07:30.376Z,987.3
2018-11-04T12:08:40.505Z,987.27
2018-11-04T12:09:50.365Z,987.27
2018-11-04T12:11:00.504Z,987.29
2018-11-04T12:12:10.372Z,987.28
2018-11-04T12:13:20.499Z,987.27
2018-11-04T12:14:30.358Z,987.28
2018-11-04T12:15:40.482Z,987.28
2018-11-04T12:16:50.335Z,987.23
2018-11-04T12:18:00.185Z,987.31
2018-11-04T12:19:10.141Z,987.28
2018-11-04T12:20:19.992Z,987.29
2018-11-04T12:21:29.848Z,987.31
2018-11-04T12:22:39.971Z,987.34
2018-11-04T12:23:49.898Z,987.35
2018-11-04T12:25:00.174Z,987.36
2018-11-04T12:26:09.483Z,987.3
2018-11-04T12:27:19.613Z,987.3
2018-11-04T12:28:29.469Z,987.36
2018-11-04T12:29:39.593Z,987.33
2018-11-04T12:30:49.451Z,987.39
2018-11-04T12:31:59.302Z,987.41
2018-11-04T12:33:09.153Z,987.45
2018-11-04T12:34:19.003Z,987.49
2018-11-04T12:35:29.136Z,987.44
2018-11-04T12:36:38.984Z,987.44
2018-11-04T12:37:48.849Z,987.41
2018-11-04T12:38:58.975Z,987.47
2018-11-04T12:40:09.111Z,987.41
2018-11-04T12:41:19.236Z,987.42
2018-11-04T12:42:29.088Z,987.47
2018-11-04T12:43:38.945Z,987.48
2018-11-04T12:44:48.808Z,987.48
2018-11-04T12:45:58.661Z,987.43
2018-11-04T12:47:08.519Z,987.44
2018-11-04T12:48:18.427Z,987.37
2018-11-04T12:49:28.561Z,987.41
2018-11-04T12:50:38.151Z,987.37
2018-11-04T12:51:47.736Z,987.35
2018-11-04T12:52:57.591Z,987.38
2018-11-04T12:54:07.495Z,987.36
2018-11-04T12:55:17.632Z,987.34
2018-11-04T12:56:27.485Z,987.37
2018-11-04T12:57:37.616Z,987.38
2018-11-04T12:58:47.197Z,987.32
2018-11-04T12:59:57.061Z,987.34
2018-11-04T13:01:06.923Z,987.34
2018-11-04T13:02:16.775Z,987.33
2018-11-04T13:03:26.632Z,987.3
2018-11-04T13:04:36.489Z,987.29
2018-11-04T13:05:46.388Z,987.3
2018-11-04T13:06:55.961Z,987.32
2018-11-04T13:08:05.881Z,987.31
2018-11-04T13:09:16.009Z,987.33
2018-11-04T13:10:26.146Z,987.3
2018-11-04T13:11:36.369Z,987.35
2018-11-04T13:12:47.002Z,987.35
2018-11-04T13:13:56.852Z,987.35
2018-11-04T13:15:06.158Z,987.32
2018-11-04T13:16:16.015Z,987.32
2018-11-04T13:17:25.913Z,987.29
2018-11-04T13:18:35.772Z,987.27
2018-11-04T13:19:45.896Z,987.33
2018-11-04T13:20:55.758Z,987.33
2018-11-04T13:22:06.056Z,987.31
2018-11-04T13:23:16.243Z,987.31
2018-11-04T13:24:26.377Z,987.33
2018-11-04T13:25:35.951Z,987.39
2018-11-04T13:26:45.856Z,987.42
2018-11-04T13:27:55.930Z,987.39
2018-11-04T13:29:06.116Z,987.39
2018-11-04T13:30:16.246Z,987.38
2018-11-04T13:31:25.823Z,987.44
2018-11-04T13:32:35.671Z,987.38
2018-11-04T13:33:45.529Z,987.37
2018-11-04T13:34:55.436Z,987.42
2018-11-04T13:36:05.596Z,987.38
2018-11-04T13:37:15.813Z,987.36
2018-11-04T13:38:25.655Z,987.44
2018-11-04T13:39:35.523Z,987.41
2018-11-04T13:40:45.701Z,987.45
2018-11-04T13:41:55.551Z,987.44
2018-11-04T13:43:05.743Z,987.41
2018-11-04T13:44:16.235Z,987.4
2018-11-04T13:45:25.810Z,987.42
2018-11-04T13:46:35.939Z,987.4
2018-11-04T13:47:45.790Z,987.41
2018-11-04T13:48:55.917Z,987.36
2018-11-04T13:50:05.764Z,987.4
2018-11-04T13:51:15.887Z,987.38
2018-11-04T13:52:26.069Z,987.4
2018-11-04T13:53:36.194Z,987.4
2018-11-04T13:54:46.328Z,987.4
2018-11-04T13:55:56.459Z,987.42
2018-11-04T13:57:06.609Z,987.42
2018-11-04T13:58:16.506Z,987.39
2018-11-04T13:59:26.632Z,987.41
2018-11-04T14:00:36.206Z,987.37
2018-11-04T14:01:46.113Z,987.38
2018-11-04T14:02:55.710Z,987.36
2018-11-04T14:04:06.173Z,987.35
2018-11-04T14:05:16.314Z,987.38
2018-11-04T14:06:26.162Z,987.37
2018-11-04T14:07:36.282Z,987.35
2018-11-04T14:08:46.407Z,987.35
2018-11-04T14:09:56.261Z,987.3
2018-11-04T14:11:06.377Z,987.27
2018-11-04T14:12:16.227Z,987.3
2018-11-04T14:13:26.407Z,987.27
2018-11-04T14:14:36.850Z,987.32
2018-11-04T14:15:46.752Z,987.29
2018-11-04T14:16:56.610Z,987.28
2018-11-04T14:18:06.737Z,987.28
2018-11-04T14:19:16.866Z,987.25
2018-11-04T14:20:26.730Z,987.26
2018-11-04T14:21:36.629Z,987.3
2018-11-04T14:22:46.481Z,987.21
2018-11-04T14:23:56.251Z,987.24
2018-11-04T14:25:06.656Z,987.25
2018-11-04T14:26:16.501Z,987.29
2018-11-04T14:27:26.123Z,987.3
2018-11-04T14:28:36.251Z,987.25
2018-11-04T14:29:46.378Z,987.29
2018-11-04T14:30:56.295Z,987.23
2018-11-04T14:32:06.993Z,987.27
2018-11-04T14:33:17.190Z,987.23
2018-11-04T14:34:26.765Z,987.21
2018-11-04T14:35:36.339Z,987.22
2018-11-04T14:36:46.192Z,987.21